createdAt,value
2023-03-05T00:00:09.288Z,36.67
2023-03-05T00:01:18.107Z,26.57
2023-03-05T00:02:19.572Z,23.40
2023-03-05T00:03:20.983Z,22.13
2023-03-05T00:04:23.601Z,22.80
2023-03-05T00:05:24.944Z,21.57
2023-03-05T00:06:27.744Z,20.67
2023-03-05T00:07:29.121Z,21.37
2023-03-05T00:08:30.873Z,21.33
2023-03-05T00:09:33.439Z,21.30
2023-03-05T00:10:36.255Z,20.93
2023-03-05T00:11:38.013Z,21.13
2023-03-05T00:12:53.451Z,20.93
2023-03-05T00:13:55.046Z,21.37
2023-03-05T00:14:56.441Z,20.47
2023-03-05T00:15:57.961Z,20.47
2023-03-05T00:16:59.536Z,21.27
2023-03-05T00:18:01.010Z,22.00
2023-03-05T00:19:02.541Z,21.67
2023-03-05T00:20:04.020Z,20.93
2023-03-05T00:21:06.178Z,22.10
2023-03-05T00:22:07.698Z,21.77
2023-03-05T00:23:09.101Z,21.07
2023-03-05T00:24:15.148Z,20.77
2023-03-05T00:25:16.560Z,21.70
2023-03-05T00:26:19.030Z,20.93
2023-03-05T00:27:20.822Z,23.87
2023-03-05T00:28:22.244Z,21.63
2023-03-05T00:29:23.688Z,21.13
2023-03-05T00:30:25.056Z,21.47
2023-03-05T00:31:30.435Z,21.40
2023-03-05T00:32:32.112Z,21.77
2023-03-05T00:33:33.561Z,21.33
2023-03-05T00:34:36.341Z,22.60
2023-03-05T00:35:44.528Z,22.67
2023-03-05T00:36:47.771Z,22.50
2023-03-05T00:37:49.131Z,23.07
2023-03-05T00:38:50.521Z,22.83
2023-03-05T00:39:51.865Z,21.40
2023-03-05T00:40:53.298Z,21.83
2023-03-05T00:41:54.822Z,23.13
2023-03-05T00:42:56.240Z,22.10
2023-03-05T00:43:57.700Z,20.97
2023-03-05T00:44:59.199Z,22.83
2023-03-05T00:46:03.713Z,22.07
2023-03-05T00:47:05.825Z,20.33
2023-03-05T00:48:07.400Z,20.93
2023-03-05T00:49:08.793Z,21.90
2023-03-05T00:50:10.441Z,21.83
2023-03-05T00:51:11.892Z,20.80
2023-03-05T00:52:13.231Z,21.50
2023-03-05T00:53:14.656Z,21.53
2023-03-05T00:54:16.033Z,21.30
2023-03-05T00:55:17.765Z,20.23
2023-03-05T00:56:19.228Z,20.83
2023-03-05T00:57:20.662Z,21.30
2023-03-05T00:58:22.103Z,20.90
2023-03-05T00:59:23.467Z,21.60
2023-03-05T01:00:24.906Z,20.37
2023-03-05T01:01:26.886Z,21.30
2023-03-05T01:02:28.296Z,20.97
2023-03-05T01:03:30.393Z,21.47
2023-03-05T01:04:31.787Z,22.87
2023-03-05T01:05:33.158Z,21.53
2023-03-05T01:06:34.745Z,20.77
2023-03-05T01:07:36.079Z,21.67
2023-03-05T01:08:37.853Z,20.97
2023-03-05T01:09:39.366Z,21.07
2023-03-05T01:10:40.899Z,20.83
2023-03-05T01:11:42.373Z,20.17
2023-03-05T01:12:43.702Z,21.43
2023-03-05T01:13:45.078Z,21.47
2023-03-05T01:14:46.464Z,20.77
2023-03-05T01:15:48.703Z,20.73
2023-03-05T01:16:50.186Z,22.00
2023-03-05T01:17:51.612Z,21.53
2023-03-05T01:18:53.254Z,22.37
2023-03-05T01:19:55.444Z,22.20
2023-03-05T01:20:56.981Z,21.83
2023-03-05T01:21:58.929Z,22.37
2023-03-05T01:23:01.674Z,20.80
2023-03-05T01:24:03.579Z,21.27
2023-03-05T01:25:04.999Z,20.87
2023-03-05T01:26:06.558Z,20.93
2023-03-05T01:27:07.913Z,21.70
2023-03-05T01:28:09.432Z,21.63
2023-03-05T01:29:10.865Z,22.47
2023-03-05T01:30:13.881Z,22.30
2023-03-05T01:31:15.713Z,21.73
2023-03-05T01:32:17.095Z,21.47
2023-03-05T01:33:18.444Z,20.43
2023-03-05T01:34:21.271Z,21.30
2023-03-05T01:35:23.768Z,21.87
2023-03-05T01:36:25.237Z,21.97
2023-03-05T01:37:26.621Z,20.83
2023-03-05T01:38:28.143Z,20.87
2023-03-05T01:39:29.509Z,21.57
2023-03-05T01:40:31.024Z,21.00
2023-03-05T01:41:33.860Z,20.27
2023-03-05T01:42:35.229Z,20.40
2023-03-05T01:43:36.830Z,21.20
2023-03-05T01:44:38.210Z,21.77
2023-03-05T01:46:00.178Z,20.90
2023-03-05T01:47:01.544Z,22.07
2023-03-05T01:48:03.038Z,20.60
2023-03-05T01:49:08.006Z,21.77
2023-03-05T01:50:11.426Z,22.07
2023-03-05T01:51:13.042Z,21.03
2023-03-05T01:52:17.817Z,20.63
2023-03-05T01:53:19.690Z,21.00
2023-03-05T01:54:22.582Z,20.47
2023-03-05T01:55:24.755Z,20.40
2023-03-05T01:56:27.046Z,21.17
2023-03-05T01:57:34.443Z,20.67
2023-03-05T01:58:36.154Z,20.80
2023-03-05T01:59:39.008Z,20.67
2023-03-05T02:00:45.450Z,21.43
2023-03-05T02:01:50.050Z,21.60
2023-03-05T02:02:57.363Z,21.50
2023-03-05T02:03:59.232Z,21.20
2023-03-05T02:05:05.744Z,20.57
2023-03-05T02:06:10.503Z,21.77
2023-03-05T02:07:12.706Z,21.10
2023-03-05T02:08:18.555Z,21.50
2023-03-05T02:09:24.254Z,21.93
2023-03-05T02:10:30.621Z,21.80
2023-03-05T02:11:33.121Z,19.73
2023-03-05T02:12:35.318Z,21.43
2023-03-05T02:13:45.576Z,20.87
2023-03-05T02:14:48.949Z,22.00
2023-03-05T02:15:52.851Z,22.77
2023-03-05T02:17:06.537Z,21.10
2023-03-05T02:18:14.020Z,21.77
2023-03-05T02:19:18.627Z,21.07
2023-03-05T02:20:25.947Z,21.10
2023-03-05T02:21:34.826Z,19.80
2023-03-05T02:22:36.484Z,20.17
2023-03-05T02:23:44.187Z,21.67
2023-03-05T02:24:49.301Z,20.37
2023-03-05T02:25:57.619Z,21.33
2023-03-05T02:27:00.168Z,21.23
2023-03-05T02:28:04.179Z,21.33
2023-03-05T02:29:10.321Z,20.30
2023-03-05T02:30:12.873Z,21.30
2023-03-05T02:31:35.410Z,21.90
2023-03-05T02:32:37.738Z,21.93
2023-03-05T02:33:47.040Z,21.20
2023-03-05T02:35:01.771Z,21.20
2023-03-05T02:36:07.579Z,20.77
2023-03-05T02:37:10.659Z,20.37
2023-03-05T02:38:18.213Z,20.97
2023-03-05T02:39:24.093Z,21.53
2023-03-05T02:40:29.465Z,21.33
2023-03-05T02:41:31.642Z,20.73
2023-03-05T02:43:50.370Z,20.03
2023-03-05T02:44:52.038Z,20.57
2023-03-05T02:46:24.907Z,20.97
2023-03-05T02:47:36.313Z,21.63
2023-03-05T02:48:42.555Z,20.23
2023-03-05T02:49:48.318Z,20.97
2023-03-05T02:50:50.380Z,21.03
2023-03-05T02:51:53.339Z,20.50
2023-03-05T02:53:02.034Z,21.73
2023-03-05T02:54:06.501Z,21.27
2023-03-05T02:55:32.879Z,22.30
2023-03-05T02:56:35.792Z,21.43
2023-03-05T02:57:38.923Z,21.47
2023-03-05T02:58:41.006Z,20.60
2023-03-05T02:59:43.489Z,20.50
2023-03-05T03:00:51.208Z,21.57
2023-03-05T03:01:55.531Z,21.20
2023-03-05T03:03:17.844Z,19.93
2023-03-05T03:04:24.188Z,20.73
2023-03-05T03:05:26.263Z,20.00
2023-03-05T03:06:35.718Z,21.53
2023-03-05T03:07:49.469Z,19.20
2023-03-05T03:08:51.905Z,20.17
2023-03-05T03:09:58.553Z,20.07
2023-03-05T03:11:11.216Z,20.80
2023-03-05T03:12:13.321Z,20.37
2023-03-05T03:13:23.788Z,19.20
2023-03-05T03:14:25.774Z,21.33
2023-03-05T03:15:33.673Z,21.10
2023-03-05T03:17:17.856Z,21.80
2023-03-05T03:18:25.851Z,20.10
2023-03-05T03:19:35.115Z,21.00
2023-03-05T03:20:42.526Z,20.40
2023-03-05T03:21:47.500Z,20.60
2023-03-05T03:22:50.747Z,20.83
2023-03-05T03:24:05.692Z,19.93
2023-03-05T03:25:08.338Z,21.77
2023-03-05T03:26:10.746Z,20.53
2023-03-05T03:27:16.297Z,20.27
2023-03-05T03:28:18.061Z,20.17
2023-03-05T03:29:20.367Z,20.87
2023-03-05T03:30:28.749Z,19.90
2023-03-05T03:31:38.032Z,20.27
2023-03-05T03:32:47.954Z,20.63
2023-03-05T03:33:53.415Z,20.13
2023-03-05T03:35:04.288Z,19.17
2023-03-05T03:36:09.758Z,20.43
2023-03-05T03:37:14.005Z,20.30
2023-03-05T03:38:15.898Z,21.07
2023-03-05T03:39:18.114Z,18.87
2023-03-05T03:40:28.625Z,19.97
2023-03-05T03:41:33.582Z,20.03
2023-03-05T03:42:38.484Z,20.33
2023-03-05T03:43:40.322Z,19.77
2023-03-05T03:44:42.373Z,20.77
2023-03-05T03:45:44.623Z,20.40
2023-03-05T03:46:52.588Z,19.83
2023-03-05T03:47:57.777Z,20.20
2023-03-05T03:49:06.159Z,20.00
2023-03-05T03:50:18.395Z,20.37
2023-03-05T03:51:22.977Z,19.57
2023-03-05T03:52:26.667Z,20.57
2023-03-05T03:53:37.613Z,20.83
2023-03-05T03:54:42.214Z,21.40
2023-03-05T03:55:50.362Z,21.53
2023-03-05T03:56:55.120Z,21.27
2023-03-05T03:57:56.970Z,19.87
2023-03-05T03:58:59.342Z,20.20
2023-03-05T04:00:01.460Z,20.93
2023-03-05T04:01:03.830Z,20.97
2023-03-05T04:02:21.492Z,20.37
2023-03-05T04:03:25.810Z,20.50
2023-03-05T04:04:29.389Z,21.03
2023-03-05T04:05:31.219Z,20.90
2023-03-05T04:06:33.917Z,20.30
2023-03-05T04:07:36.964Z,20.37
2023-03-05T04:09:11.928Z,21.40
2023-03-05T04:10:20.133Z,19.70
2023-03-05T04:11:25.540Z,21.37
2023-03-05T04:12:27.765Z,20.77
2023-03-05T04:13:38.968Z,20.37
2023-03-05T04:14:54.087Z,19.40
2023-03-05T04:15:56.032Z,19.97
2023-03-05T04:17:04.392Z,20.53
2023-03-05T04:18:14.825Z,19.00
2023-03-05T04:19:20.331Z,20.00
2023-03-05T04:20:27.918Z,20.37
2023-03-05T04:21:39.335Z,19.90
2023-03-05T04:22:41.697Z,20.20
2023-03-05T04:23:43.959Z,20.30
2023-03-05T04:24:51.336Z,20.30
2023-03-05T04:26:02.857Z,19.30
2023-03-05T04:27:05.630Z,20.33
2023-03-05T04:28:15.399Z,20.00
2023-03-05T04:29:19.289Z,20.00
2023-03-05T04:30:21.318Z,20.90
2023-03-05T04:31:30.695Z,18.37
2023-03-05T04:32:36.372Z,18.93
2023-03-05T04:33:41.688Z,19.00
2023-03-05T04:34:43.469Z,18.97
2023-03-05T04:35:51.493Z,20.27
2023-03-05T04:36:53.373Z,18.93
2023-03-05T04:38:04.481Z,19.43
2023-03-05T04:39:12.813Z,19.33
2023-03-05T04:40:14.787Z,20.27
2023-03-05T04:41:17.187Z,18.83
2023-03-05T04:42:22.085Z,20.60
2023-03-05T04:43:23.983Z,19.97
2023-03-05T04:44:26.411Z,20.73
2023-03-05T04:45:28.155Z,19.70
2023-03-05T04:46:30.244Z,19.93
2023-03-05T04:47:37.317Z,18.97
2023-03-05T04:48:42.114Z,19.83
2023-03-05T04:49:44.399Z,19.37
2023-03-05T04:50:45.985Z,20.17
2023-03-05T04:51:51.064Z,18.77
2023-03-05T04:52:53.070Z,19.43
2023-03-05T04:54:03.895Z,20.20
2023-03-05T04:55:13.359Z,20.40
2023-03-05T04:56:19.779Z,20.60
2023-03-05T04:57:23.146Z,21.77
2023-03-05T04:58:32.209Z,23.77
2023-03-05T04:59:37.167Z,25.13
2023-03-05T05:00:48.061Z,28.47
2023-03-05T05:01:52.956Z,27.67
2023-03-05T05:02:58.239Z,29.27
2023-03-05T05:04:03.327Z,26.47
2023-03-05T05:06:48.157Z,25.07
2023-03-05T05:07:54.657Z,24.47
2023-03-05T05:08:56.390Z,23.47
2023-03-05T05:11:19.805Z,22.90
2023-03-05T05:12:24.800Z,25.30
2023-03-05T05:13:42.054Z,23.77
2023-03-05T05:14:57.048Z,22.50
2023-03-05T05:15:59.081Z,20.70
2023-03-05T05:17:17.150Z,20.83
2023-03-05T05:18:22.754Z,21.47
2023-03-05T05:19:28.382Z,20.17
2023-03-05T05:21:59.716Z,20.80
2023-03-05T05:23:07.239Z,20.03
2023-03-05T05:24:21.406Z,20.70
2023-03-05T05:25:23.093Z,20.07
2023-03-05T05:26:32.630Z,20.73
2023-03-05T05:27:37.938Z,19.63
2023-03-05T05:28:46.967Z,19.77
2023-03-05T05:29:50.627Z,20.03
2023-03-05T05:30:55.110Z,19.57
2023-03-05T05:31:57.007Z,18.80
2023-03-05T05:32:58.869Z,18.70
2023-03-05T05:34:00.893Z,20.73
2023-03-05T05:35:11.611Z,19.60
2023-03-05T05:36:17.656Z,21.03
2023-03-05T05:37:19.553Z,19.67
2023-03-05T05:38:30.651Z,19.57
2023-03-05T05:39:35.464Z,20.33
2023-03-05T05:40:37.924Z,20.60
2023-03-05T05:41:42.894Z,20.97
2023-03-05T05:42:45.833Z,20.53
2023-03-05T05:43:49.044Z,21.10
2023-03-05T05:44:51.741Z,20.03
2023-03-05T05:45:53.470Z,21.13
2023-03-05T05:47:01.415Z,19.57
2023-03-05T05:48:11.058Z,19.90
2023-03-05T05:49:19.769Z,20.97
2023-03-05T05:50:23.660Z,19.27
2023-03-05T05:51:31.315Z,21.77
2023-03-05T05:52:34.559Z,21.60
2023-03-05T05:53:36.814Z,20.57
2023-03-05T05:54:38.765Z,20.87
2023-03-05T05:55:44.084Z,19.83
2023-03-05T05:56:46.002Z,20.77
2023-03-05T05:58:08.574Z,21.20
2023-03-05T05:59:11.243Z,19.50
2023-03-05T06:00:14.393Z,20.17
2023-03-05T06:01:28.275Z,19.87
2023-03-05T06:02:29.655Z,20.10
2023-03-05T06:03:30.987Z,20.47
2023-03-05T06:04:32.392Z,20.73
2023-03-05T06:05:34.360Z,21.17
2023-03-05T06:06:35.691Z,20.97
2023-03-05T06:07:37.184Z,21.13
2023-03-05T06:08:38.661Z,22.23
2023-03-05T06:09:39.966Z,22.37
2023-03-05T06:10:41.346Z,21.40
2023-03-05T06:11:42.666Z,22.90
2023-03-05T06:12:44.002Z,21.67
2023-03-05T06:13:45.603Z,21.07
2023-03-05T06:14:46.960Z,21.03
2023-03-05T06:15:58.192Z,19.57
2023-03-05T06:16:59.582Z,20.70
2023-03-05T06:18:01.196Z,21.87
2023-03-05T06:19:04.671Z,21.70
2023-03-05T06:20:06.941Z,20.63
2023-03-05T06:21:09.525Z,21.07
2023-03-05T06:22:10.935Z,21.07
2023-03-05T06:23:12.280Z,19.53
2023-03-05T06:24:13.775Z,22.20
2023-03-05T06:25:15.141Z,22.00
2023-03-05T06:26:17.922Z,21.87
2023-03-05T06:27:19.300Z,21.93
2023-03-05T06:28:21.073Z,21.37
2023-03-05T06:29:22.415Z,22.67
2023-03-05T06:30:23.790Z,21.97
2023-03-05T06:31:26.067Z,21.87
2023-03-05T06:32:27.448Z,22.87
2023-03-05T06:33:28.855Z,21.10
2023-03-05T06:34:30.172Z,21.93
2023-03-05T06:35:31.488Z,21.60
2023-03-05T06:36:32.929Z,23.00
2023-03-05T06:37:34.306Z,21.90
2023-03-05T06:38:36.315Z,22.10
2023-03-05T06:39:37.743Z,21.03
2023-03-05T06:40:39.777Z,21.73
2023-03-05T06:41:41.399Z,21.97
2023-03-05T06:42:42.731Z,22.77
2023-03-05T06:43:44.930Z,22.70
2023-03-05T06:44:48.196Z,22.43
2023-03-05T06:45:49.738Z,21.47
2023-03-05T06:46:51.178Z,21.93
2023-03-05T06:47:52.540Z,21.80
2023-03-05T06:48:58.453Z,22.10
2023-03-05T06:49:59.785Z,22.37
2023-03-05T06:51:01.191Z,22.83
2023-03-05T06:52:02.754Z,21.80
2023-03-05T06:53:04.179Z,22.27
2023-03-05T06:54:07.879Z,21.27
2023-03-05T06:55:09.399Z,21.43
2023-03-05T06:56:10.984Z,22.70
2023-03-05T06:57:13.495Z,22.63
2023-03-05T06:58:14.778Z,21.73
2023-03-05T06:59:16.620Z,22.97
2023-03-05T07:00:18.031Z,21.70
2023-03-05T07:01:20.359Z,21.27
2023-03-05T07:02:21.778Z,20.97
2023-03-05T07:03:23.480Z,23.07
2023-03-05T07:04:25.413Z,22.10
2023-03-05T07:05:26.771Z,21.77
2023-03-05T07:06:29.130Z,22.23
2023-03-05T07:07:30.561Z,24.03
2023-03-05T07:08:32.706Z,25.90
2023-03-05T07:09:34.082Z,25.47
2023-03-05T07:10:42.795Z,25.77
2023-03-05T07:11:44.161Z,25.67
2023-03-05T07:12:46.791Z,25.30
2023-03-05T07:13:48.934Z,24.57
2023-03-05T07:14:50.523Z,23.73
2023-03-05T07:15:51.854Z,23.37
2023-03-05T07:16:53.189Z,22.33
2023-03-05T07:17:54.687Z,22.47
2023-03-05T07:18:56.936Z,22.60
2023-03-05T07:19:58.354Z,23.40
2023-03-05T07:21:06.499Z,21.93
2023-03-05T07:22:08.161Z,22.17
2023-03-05T07:23:09.603Z,22.07
2023-03-05T07:24:12.477Z,22.73
2023-03-05T07:25:13.902Z,23.70
2023-03-05T07:26:16.193Z,22.03
2023-03-05T07:27:17.632Z,22.90
2023-03-05T07:28:19.059Z,23.80
2023-03-05T07:29:20.367Z,23.57
2023-03-05T07:30:21.890Z,23.10
2023-03-05T07:31:27.315Z,24.23
2023-03-05T07:32:28.979Z,23.13
2023-03-05T07:33:30.728Z,24.40
2023-03-05T07:34:32.070Z,23.30
2023-03-05T07:35:33.509Z,21.83
2023-03-05T07:36:35.174Z,23.17
2023-03-05T07:37:36.896Z,22.97
2023-03-05T07:38:38.739Z,22.80
2023-03-05T07:39:40.068Z,22.77
2023-03-05T07:40:41.617Z,23.43
2023-03-05T07:41:42.943Z,22.70
2023-03-05T07:42:45.032Z,23.33
2023-03-05T07:43:56.403Z,23.77
2023-03-05T07:44:57.822Z,24.10
2023-03-05T07:45:59.253Z,24.27
2023-03-05T07:47:00.739Z,24.40
2023-03-05T07:48:02.052Z,25.47
2023-03-05T07:49:04.252Z,25.50
2023-03-05T07:50:06.452Z,25.00
2023-03-05T07:51:09.113Z,23.77
2023-03-05T07:52:10.517Z,24.90
2023-03-05T07:53:11.948Z,24.87
2023-03-05T07:54:14.601Z,24.13
2023-03-05T07:55:16.861Z,23.87
2023-03-05T07:56:23.391Z,23.03
2023-03-05T07:57:24.844Z,23.60
2023-03-05T07:58:26.825Z,23.30
2023-03-05T07:59:28.428Z,21.80
2023-03-05T08:00:29.972Z,22.30
2023-03-05T08:01:34.171Z,21.33
2023-03-05T08:02:36.338Z,21.63
2023-03-05T08:03:37.773Z,22.70
2023-03-05T08:04:39.677Z,20.63
2023-03-05T08:05:41.709Z,21.57
2023-03-05T08:06:43.397Z,20.33
2023-03-05T08:07:50.332Z,21.33
2023-03-05T08:08:54.725Z,20.33
2023-03-05T08:09:57.920Z,20.83
2023-03-05T08:11:05.562Z,20.77
2023-03-05T08:12:07.178Z,23.90
2023-03-05T08:13:08.773Z,23.30
2023-03-05T08:14:12.096Z,23.63
2023-03-05T08:15:13.516Z,24.43
2023-03-05T08:16:16.320Z,23.67
2023-03-05T08:17:17.932Z,23.80
2023-03-05T08:18:20.023Z,23.37
2023-03-05T08:19:22.139Z,23.37
2023-03-05T08:20:24.861Z,23.03
2023-03-05T08:21:29.211Z,22.73
2023-03-05T08:22:32.806Z,22.60
2023-03-05T08:23:34.550Z,22.13
2023-03-05T08:24:37.757Z,22.83
2023-03-05T08:25:41.704Z,23.97
2023-03-05T08:26:48.634Z,23.33
2023-03-05T08:27:53.821Z,22.90
2023-03-05T08:28:59.692Z,23.63
2023-03-05T08:30:03.241Z,25.27
2023-03-05T08:31:09.439Z,25.67
2023-03-05T08:32:12.473Z,24.83
2023-03-05T08:33:14.913Z,25.97
2023-03-05T08:34:21.630Z,23.20
2023-03-05T08:35:26.451Z,24.30
2023-03-05T08:36:31.475Z,23.77
2023-03-05T08:37:32.989Z,24.07
2023-03-05T08:38:36.724Z,23.33
2023-03-05T08:39:38.270Z,24.67
2023-03-05T08:40:46.389Z,24.43
2023-03-05T08:41:48.760Z,24.67
2023-03-05T08:42:52.523Z,23.23
2023-03-05T08:43:54.276Z,23.37
2023-03-05T08:44:56.903Z,22.67
2023-03-05T08:46:00.165Z,23.03
2023-03-05T08:47:02.363Z,24.30
2023-03-05T08:48:06.687Z,23.00
2023-03-05T08:49:08.947Z,22.90
2023-03-05T08:50:11.354Z,21.73
2023-03-05T08:51:15.061Z,22.07
2023-03-05T08:52:20.058Z,21.00
2023-03-05T08:53:22.914Z,20.67
2023-03-05T08:54:25.932Z,19.80
2023-03-05T08:55:27.345Z,19.90
2023-03-05T08:56:31.201Z,19.93
2023-03-05T08:57:33.242Z,20.13
2023-03-05T08:58:34.890Z,21.40
2023-03-05T08:59:36.425Z,18.97
2023-03-05T09:00:38.049Z,19.17
2023-03-05T09:01:39.600Z,19.07
2023-03-05T09:02:41.209Z,18.37
2023-03-05T09:03:43.845Z,17.40
2023-03-05T09:04:45.466Z,16.93
2023-03-05T09:05:46.982Z,16.87
2023-03-05T09:06:49.819Z,18.07
2023-03-05T09:07:51.966Z,18.27
2023-03-05T09:08:54.035Z,19.63
2023-03-05T09:09:55.716Z,19.60
2023-03-05T09:10:57.624Z,17.80
2023-03-05T09:11:59.701Z,17.03
2023-03-05T09:13:01.567Z,16.73
2023-03-05T09:14:04.298Z,15.90
2023-03-05T09:15:09.060Z,16.20
2023-03-05T09:16:14.679Z,15.53
2023-03-05T09:17:19.082Z,15.07
2023-03-05T09:18:21.459Z,15.10
2023-03-05T09:19:23.104Z,15.33
2023-03-05T09:20:28.176Z,15.13
2023-03-05T09:21:29.553Z,14.63
2023-03-05T09:22:31.006Z,15.37
2023-03-05T09:23:33.386Z,14.37
2023-03-05T09:24:35.003Z,14.47
2023-03-05T09:25:42.509Z,13.60
2023-03-05T09:26:47.113Z,13.80
2023-03-05T09:27:51.579Z,14.70
2023-03-05T09:28:53.349Z,14.33
2023-03-05T09:29:56.554Z,13.43
2023-03-05T09:31:01.809Z,14.10
2023-03-05T09:32:03.903Z,13.07
2023-03-05T09:33:09.267Z,15.07
2023-03-05T09:34:11.943Z,13.10
2023-03-05T09:35:17.119Z,12.93
2023-03-05T09:36:30.868Z,13.60
2023-03-05T09:37:32.611Z,14.83
2023-03-05T09:38:40.645Z,14.63
2023-03-05T09:39:42.719Z,13.90
2023-03-05T09:40:49.563Z,14.47
2023-03-05T09:41:59.061Z,13.70
2023-03-05T09:43:09.793Z,14.53
2023-03-05T09:44:24.259Z,13.90
2023-03-05T09:45:33.146Z,13.47
2023-03-05T09:46:52.562Z,13.70
2023-03-05T09:48:04.374Z,14.50
2023-03-05T09:49:22.333Z,13.83
2023-03-05T09:50:33.856Z,13.53
2023-03-05T09:51:38.732Z,13.87
2023-03-05T09:52:45.978Z,13.80
2023-03-05T09:53:53.735Z,13.03
2023-03-05T09:54:57.656Z,14.10
2023-03-05T09:56:14.218Z,13.50
2023-03-05T09:57:19.107Z,12.93
2023-03-05T09:58:27.210Z,12.57
2023-03-05T09:59:47.825Z,12.47
2023-03-05T10:00:50.620Z,11.10
2023-03-05T10:02:03.216Z,9.10
2023-03-05T10:03:12.971Z,10.27
2023-03-05T10:04:32.574Z,10.07
2023-03-05T10:05:51.201Z,10.53
2023-03-05T10:06:58.472Z,9.17
2023-03-05T10:08:01.677Z,9.97
2023-03-05T10:09:06.928Z,9.20
2023-03-05T10:10:28.583Z,9.60
2023-03-05T10:11:38.898Z,8.17
2023-03-05T10:12:48.297Z,8.97
2023-03-05T10:13:52.348Z,8.73
2023-03-05T10:14:55.000Z,9.90
2023-03-05T10:16:15.346Z,9.03
2023-03-05T10:17:27.682Z,8.50
2023-03-05T10:18:39.342Z,8.20
2023-03-05T10:20:04.081Z,8.60
2023-03-05T10:21:26.189Z,13.97
2023-03-05T10:22:37.871Z,11.90
2023-03-05T10:23:47.811Z,10.33
2023-03-05T10:25:03.162Z,8.63
2023-03-05T10:26:11.108Z,17.60
2023-03-05T10:27:19.790Z,12.83
2023-03-05T10:28:31.496Z,12.10
2023-03-05T10:30:17.226Z,9.40
2023-03-05T10:32:02.798Z,9.00
2023-03-05T10:33:51.681Z,8.50
2023-03-05T10:35:11.832Z,7.70
2023-03-05T10:36:21.415Z,8.00
2023-03-05T10:37:34.864Z,8.00
2023-03-05T10:39:09.400Z,8.30
2023-03-05T10:40:21.572Z,8.20
2023-03-05T10:41:33.270Z,8.70
2023-03-05T10:42:56.877Z,8.53
2023-03-05T10:44:24.759Z,8.70
2023-03-05T10:45:29.364Z,6.97
2023-03-05T10:46:40.792Z,6.93
2023-03-05T10:48:16.236Z,6.83
2023-03-05T10:49:34.548Z,6.60
2023-03-05T10:50:47.515Z,7.23
2023-03-05T10:52:00.616Z,7.70
2023-03-05T10:53:25.777Z,7.60
2023-03-05T10:54:39.520Z,7.30
2023-03-05T10:56:00.194Z,7.60
2023-03-05T10:57:19.463Z,6.63
2023-03-05T10:58:24.710Z,6.63
2023-03-05T10:59:31.858Z,6.93
2023-03-05T11:00:39.341Z,6.33
2023-03-05T11:02:08.873Z,6.57
2023-03-05T11:03:10.794Z,6.53
2023-03-05T11:06:31.048Z,6.73
2023-03-05T11:07:34.193Z,6.27
2023-03-05T11:08:38.781Z,6.53
2023-03-05T11:09:41.608Z,6.83
2023-03-05T11:10:45.120Z,6.70
2023-03-05T11:12:02.605Z,7.37
2023-03-05T11:15:13.266Z,6.53
2023-03-05T11:16:29.850Z,6.83
2023-03-05T11:18:19.418Z,5.97
2023-03-05T11:19:25.487Z,6.20
2023-03-05T11:20:26.942Z,6.67
2023-03-05T11:21:29.246Z,6.40
2023-03-05T11:22:35.956Z,6.67
2023-03-05T11:23:46.495Z,6.80
2023-03-05T11:25:15.289Z,5.90
2023-03-05T11:26:25.493Z,6.93
2023-03-05T11:27:54.715Z,6.47
2023-03-05T11:28:58.825Z,6.30
2023-03-05T11:30:00.512Z,6.20
2023-03-05T11:31:05.284Z,5.77
2023-03-05T11:32:22.369Z,6.43
2023-03-05T11:33:24.444Z,6.47
2023-03-05T11:34:36.186Z,6.07
2023-03-05T11:35:39.672Z,6.50
2023-03-05T11:36:51.876Z,6.10
2023-03-05T11:38:01.066Z,6.63
2023-03-05T11:39:15.143Z,6.00
2023-03-05T11:40:21.321Z,5.77
2023-03-05T11:41:35.888Z,5.73
2023-03-05T11:42:41.107Z,6.00
2023-03-05T11:43:46.880Z,6.10
2023-03-05T11:44:57.197Z,5.80
2023-03-05T11:46:02.477Z,5.87
2023-03-05T11:47:22.993Z,6.13
2023-03-05T11:48:32.985Z,5.70
2023-03-05T11:49:39.424Z,6.13
2023-03-05T11:50:45.547Z,6.33
2023-03-05T11:51:57.945Z,6.60
2023-03-05T11:53:34.192Z,6.10
2023-03-05T11:54:54.938Z,5.90
2023-03-05T11:56:01.597Z,6.60
2023-03-05T11:57:04.285Z,6.33
2023-03-05T11:58:21.002Z,5.80
2023-03-05T11:59:25.716Z,6.07
2023-03-05T12:00:41.425Z,6.27
2023-03-05T12:01:45.717Z,6.10
2023-03-05T12:02:49.092Z,5.73
2023-03-05T12:03:51.397Z,6.03
2023-03-05T12:04:52.839Z,5.40
2023-03-05T12:05:57.659Z,5.50
2023-03-05T12:07:01.641Z,5.67
2023-03-05T12:08:05.747Z,5.83
2023-03-05T12:09:11.236Z,7.63
2023-03-05T12:10:20.263Z,5.60
2023-03-05T12:11:25.555Z,5.20
2023-03-05T12:12:42.126Z,5.87
2023-03-05T12:13:46.669Z,5.50
2023-03-05T12:15:01.342Z,4.50
2023-03-05T12:16:38.071Z,4.63
2023-03-05T12:17:43.286Z,4.23
2023-03-05T12:18:50.924Z,3.83
2023-03-05T12:20:01.066Z,4.20
2023-03-05T12:21:21.556Z,3.87
2023-03-05T12:22:24.818Z,4.07
2023-03-05T12:23:28.898Z,4.17
2023-03-05T12:24:30.428Z,4.23
2023-03-05T12:25:33.548Z,3.83
2023-03-05T12:26:53.192Z,3.73
2023-03-05T12:27:54.913Z,3.73
2023-03-05T12:28:56.941Z,4.77
2023-03-05T12:30:01.542Z,3.80
2023-03-05T12:31:04.163Z,3.93
2023-03-05T12:32:06.761Z,3.53
2023-03-05T12:33:28.536Z,3.53
2023-03-05T12:34:39.317Z,4.07
2023-03-05T12:35:41.263Z,4.03
2023-03-05T12:36:42.758Z,3.93
2023-03-05T12:37:44.224Z,3.80
2023-03-05T12:38:47.607Z,3.90
2023-03-05T12:39:50.846Z,4.50
2023-03-05T12:40:52.306Z,5.13
2023-03-05T12:41:55.895Z,4.03
2023-03-05T12:42:58.437Z,3.90
2023-03-05T12:44:06.100Z,4.20
2023-03-05T12:45:11.660Z,3.50
2023-03-05T12:46:26.169Z,3.70
2023-03-05T12:47:27.671Z,3.27
2023-03-05T12:48:29.017Z,3.40
2023-03-05T12:49:35.412Z,3.67
2023-03-05T12:50:57.004Z,3.30
2023-03-05T12:51:59.669Z,3.63
2023-03-05T12:53:07.078Z,3.57
2023-03-05T12:54:27.042Z,3.60
2023-03-05T12:55:36.943Z,3.60
2023-03-05T12:56:40.824Z,3.30
2023-03-05T12:57:44.623Z,3.10
2023-03-05T12:58:48.943Z,4.20
2023-03-05T12:59:54.526Z,4.00
2023-03-05T13:01:02.161Z,3.60
2023-03-05T13:02:04.793Z,3.53
2023-03-05T13:03:09.372Z,3.43
2023-03-05T13:04:21.174Z,3.73
2023-03-05T13:05:33.512Z,3.60
2023-03-05T13:06:35.551Z,3.93
2023-03-05T13:07:37.505Z,3.90
2023-03-05T13:08:39.019Z,3.73
2023-03-05T13:09:40.444Z,3.10
2023-03-05T13:10:41.927Z,3.43
2023-03-05T13:11:46.316Z,3.07
2023-03-05T13:12:54.782Z,2.73
2023-03-05T13:13:56.563Z,3.17
2023-03-05T13:15:08.757Z,3.40
2023-03-05T13:16:24.401Z,3.10
2023-03-05T13:17:28.197Z,3.30
2023-03-05T13:18:30.996Z,3.20
2023-03-05T13:19:33.451Z,3.00
2023-03-05T13:20:39.978Z,3.27
2023-03-05T13:21:41.699Z,3.67
2023-03-05T13:22:43.157Z,3.13
2023-03-05T13:23:57.733Z,3.13
2023-03-05T13:25:16.287Z,3.20
2023-03-05T13:26:19.153Z,2.60
2023-03-05T13:27:29.686Z,2.90
2023-03-05T13:28:31.879Z,3.37
2023-03-05T13:29:33.314Z,3.23
2023-03-05T13:30:34.955Z,3.37
2023-03-05T13:31:40.425Z,3.57
2023-03-05T13:32:42.537Z,3.03
2023-03-05T13:33:57.312Z,3.07
2023-03-05T13:34:59.892Z,2.67
2023-03-05T13:36:01.547Z,3.00
2023-03-05T13:37:05.409Z,2.97
2023-03-05T13:38:15.904Z,2.70
2023-03-05T13:39:19.143Z,2.57
2023-03-05T13:40:28.797Z,2.63
2023-03-05T13:41:30.420Z,3.60
2023-03-05T13:42:34.714Z,3.20
2023-03-05T13:43:47.424Z,2.63
2023-03-05T13:44:55.039Z,2.70
2023-03-05T13:45:56.816Z,2.50
2023-03-05T13:47:12.383Z,75.83
2023-03-05T13:48:19.554Z,30.20
2023-03-05T13:49:21.003Z,22.27
2023-03-05T13:50:29.813Z,204.73
2023-03-05T13:51:41.046Z,76.17
2023-03-05T13:52:42.454Z,31.03
2023-03-05T13:53:44.215Z,27.00
2023-03-05T13:54:45.542Z,23.27
2023-03-05T13:55:47.889Z,6.40
2023-03-05T13:56:53.216Z,3.37
2023-03-05T13:57:55.162Z,3.67
2023-03-05T13:58:57.234Z,3.23
2023-03-05T13:59:58.691Z,3.10
2023-03-05T14:01:04.757Z,3.07
2023-03-05T14:02:15.781Z,3.50
2023-03-05T14:03:24.652Z,3.40
2023-03-05T14:04:27.663Z,3.03
2023-03-05T14:05:30.866Z,3.20
2023-03-05T14:06:34.042Z,3.30
2023-03-05T14:07:35.480Z,3.27
2023-03-05T14:08:37.378Z,2.67
2023-03-05T14:09:38.677Z,3.33
2023-03-05T14:10:40.258Z,3.13
2023-03-05T14:11:41.668Z,3.43
2023-03-05T14:12:43.509Z,4.13
2023-03-05T14:13:45.516Z,4.00
2023-03-05T14:14:46.924Z,3.57
2023-03-05T14:16:07.284Z,3.63
2023-03-05T14:17:24.155Z,3.90
2023-03-05T14:18:25.536Z,3.63
2023-03-05T14:19:37.735Z,3.60
2023-03-05T14:20:40.543Z,4.07
2023-03-05T14:21:42.960Z,4.03
2023-03-05T14:22:45.843Z,3.60
2023-03-05T14:23:48.376Z,3.73